Time;durP1;ratioP1;P1;durP2;ratioP2;P2;SDS_P1;SDS_P2;PMS_P1;PMS_P2;Temp;Humidity;BMP_temperature;BMP_pressure;BME280_temperature;BME280_humidity;BME280_pressure;Samples;Min_cycle;Max_cycle;Signal;HPM_P1;HPM_P2
2023/12/21 00:00:03;;;;;;;93.72;50.20;;;;;;;6.13;73.70;100989.25;4913355;28;20134;-82
2023/12/21 00:02:34;;;;;;;104.32;50.65;;;;;;;5.66;74.06;100913.22;4917000;28;20407;-82
2023/12/21 00:05:01;;;;;;;85.72;49.30;;;;;;;6.17;74.45;101011.84;4912480;28;20486;-82
2023/12/21 00:07:28;;;;;;;93.63;48.72;;;;;;;6.05;74.48;100995.97;4941052;28;20281;-79
2023/12/21 00:10:03;;;;;;;102.47;50.38;;;;;;;5.86;74.22;100962.00;4907956;28;20786;-79
2023/12/21 00:12:40;;;;;;;98.25;49.50;;;;;;;6.08;74.60;100991.34;4951368;28;20383;-78
2023/12/21 00:15:08;;;;;;;109.90;51.67;;;;;;;5.34;74.12;100864.25;4950540;28;20250;-81
2023/12/21 00:17:35;;;;;;;87.63;46.90;;;;;;;6.04;74.80;100984.56;4925927;28;20463;-80
2023/12/21 00:20:02;;;;;;;88.82;46.17;;;;;;;5.82;74.30;100968.38;4917653;28;21532;-79
2023/12/21 00:22:29;;;;;;;102.40;49.72;;;;;;;6.03;74.46;101018.94;4910562;28;20109;-81
2023/12/21 00:24:56;;;;;;;106.47;52.28;;;;;;;5.72;75.13;100945.25;4910055;28;20382;-80
2023/12/21 00:27:23;;;;;;;88.30;47.60;;;;;;;6.02;75.05;100962.75;4921931;28;20049;-81
2023/12/21 00:29:50;;;;;;;89.80;47.85;;;;;;;6.26;74.24;101013.03;4909143;28;20445;-77
2023/12/21 00:32:19;;;;;;;88.60;45.33;;;;;;;5.28;75.15;100848.00;4915782;28;20786;-80
2023/12/21 00:34:49;;;;;;;91.43;45.58;;;;;;;5.82;75.05;100926.25;4909090;28;20505;-81
2023/12/21 00:37:16;;;;;;;87.68;47.28;;;;;;;6.28;75.37;100987.41;4895581;28;20141;-80
2023/12/21 00:39:47;;;;;;;88.95;46.75;;;;;;;6.22;75.38;100992.25;4911105;28;20130;-82
2023/12/21 00:42:19;;;;;;;92.80;47.08;;;;;;;6.22;75.32;100986.97;4911340;28;20430;-83
2023/12/21 00:44:52;;;;;;;89.18;46.40;;;;;;;5.60;75.30;100889.88;4903996;28;20448;-80
2023/12/21 00:47:19;;;;;;;93.70;46.65;;;;;;;6.07;75.51;100973.84;4917577;28;20058;-80
2023/12/21 00:49:46;;;;;;;100.97;45.90;;;;;;;6.11;76.22;100985.84;4888303;28;20050;-81
2023/12/21 00:52:14;;;;;;;94.93;48.20;;;;;;;6.18;76.22;100996.88;4909282;28;20137;-80
2023/12/21 00:54:41;;;;;;;93.28;47.47;;;;;;;6.20;75.61;100998.44;4908574;28;20662;-80
2023/12/21 00:57:08;;;;;;;107.35;48.63;;;;;;;6.10;75.99;100973.63;4909451;28;20055;-80
2023/12/21 00:59:37;;;;;;;97.50;49.35;;;;;;;5.94;75.96;100951.84;4918642;28;20462;-81
2023/12/21 01:02:07;;;;;;;100.25;49.30;;;;;;;6.09;75.53;100974.59;4883729;28;20473;-80
2023/12/21 01:04:34;;;;;;;102.05;46.83;;;;;;;6.29;75.73;100975.94;4914949;28;20062;-82
2023/12/21 01:07:01;;;;;;;108.60;50.08;;;;;;;6.30;75.87;100959.16;4925447;28;20047;-80
2023/12/21 01:09:28;;;;;;;105.30;48.97;;;;;;;6.16;75.40;100938.94;4900844;28;20097;-78
2023/12/21 01:11:55;;;;;;;102.25;50.10;;;;;;;6.07;75.76;100923.75;4941873;28;20414;-80
2023/12/21 01:14:24;;;;;;;96.25;48.95;;;;;;;6.31;75.99;100970.53;4945230;28;20046;-81
2023/12/21 01:16:51;;;;;;;97.00;49.03;;;;;;;6.11;76.06;100964.78;4948534;28;20191;-80
2023/12/21 01:19:19;;;;;;;102.93;51.50;;;;;;;6.25;76.38;100971.78;4916772;28;20133;-81
2023/12/21 01:21:46;;;;;;;108.43;50.17;;;;;;;6.20;76.36;100964.19;4930525;28;20068;-81
2023/12/21 01:24:13;;;;;;;97.47;50.63;;;;;;;6.47;76.37;100980.94;4922642;28;20385;-80
2023/12/21 01:26:40;;;;;;;99.50;50.92;;;;;;;6.53;75.68;100973.50;4900130;28;20050;-81
2023/12/21 01:29:13;;;;;;;98.95;49.28;;;;;;;6.63;75.29;100977.19;4905629;28;20191;-82
2023/12/21 01:31:40;;;;;;;103.65;50.85;;;;;;;6.58;75.10;100963.47;4921136;28;20134;-79
2023/12/21 01:34:07;;;;;;;105.72;51.28;;;;;;;6.54;75.54;100961.97;4915160;28;20117;-81
2023/12/21 01:36:37;;;;;;;101.07;51.42;;;;;;;6.72;75.43;100993.34;4892805;28;20071;-78
2023/12/21 01:39:03;;;;;;;112.65;53.25;;;;;;;6.23;75.72;100920.13;4888711;28;20501;-81
2023/12/21 01:41:30;;;;;;;112.30;53.97;;;;;;;6.74;76.02;101007.28;4922181;28;20483;-79
2023/12/21 01:43:58;;;;;;;101.18;51.05;;;;;;;6.84;75.50;101027.72;4904750;28;20053;-79
2023/12/21 01:46:25;;;;;;;89.20;46.85;;;;;;;6.89;75.34;101018.63;4915630;28;20126;-79
2023/12/21 01:48:56;;;;;;;96.88;47.38;;;;;;;7.02;74.38;101020.34;4904581;28;20046;-79
2023/12/21 01:51:23;;;;;;;76.85;41.95;;;;;;;7.12;73.68;101025.00;4913922;28;20046;-81
2023/12/21 01:53:51;;;;;;;89.95;43.90;;;;;;;7.07;73.24;101012.97;4897925;28;20137;-81
2023/12/21 01:56:20;;;;;;;81.65;43.35;;;;;;;6.73;73.92;100966.03;4927299;28;20059;-79
2023/12/21 01:58:50;;;;;;;77.38;42.38;;;;;;;6.91;74.02;101007.00;4905864;28;20051;-81
2023/12/21 02:01:19;;;;;;;78.68;39.78;;;;;;;7.05;73.92;101020.13;4902722;28;20407;-80
2023/12/21 02:03:46;;;;;;;92.03;44.50;;;;;;;7.08;73.89;101037.56;4888903;29;20055;-79
2023/12/21 02:06:14;;;;;;;88.72;43.15;;;;;;;7.08;73.61;101045.47;4895387;28;20053;-80
2023/12/21 02:08:45;;;;;;;78.82;41.78;;;;;;;7.05;73.94;101041.25;4910066;28;20054;-80
2023/12/21 02:11:20;;;;;;;74.32;40.25;;;;;;;6.66;73.65;100981.44;4899003;28;20451;-79
2023/12/21 02:13:50;;;;;;;71.78;38.30;;;;;;;6.68;73.41;100986.59;4913982;28;20051;-82
2023/12/21 02:16:26;;;;;;;78.70;40.30;;;;;;;6.99;72.38;101017.91;4926101;28;20228;-81
2023/12/21 02:18:53;;;;;;;78.82;41.00;;;;;;;7.05;72.88;101025.41;4957939;28;20063;-82
2023/12/21 02:21:22;;;;;;;76.47;40.95;;;;;;;7.16;72.52;101023.84;4909343;28;20379;-81
2023/12/21 02:23:52;;;;;;;80.25;42.88;;;;;;;7.09;72.47;101014.63;4916328;28;20051;-78
2023/12/21 02:26:21;;;;;;;82.40;41.38;;;;;;;6.66;72.93;100960.31;4890072;29;20106;-82
2023/12/21 02:28:53;;;;;;;71.15;40.50;;;;;;;6.87;73.52;100997.63;4860542;29;20055;-82
2023/12/21 02:31:29;;;;;;;78.82;41.58;;;;;;;6.99;73.16;101007.34;4882991;29;20141;-81
2023/12/21 02:33:58;;;;;;;82.88;43.20;;;;;;;7.04;72.87;100975.38;4877369;29;20398;-79
2023/12/21 02:36:25;;;;;;;83.40;42.88;;;;;;;7.10;72.91;101005.78;4888337;28;20055;-81
2023/12/21 02:38:53;;;;;;;83.57;43.95;;;;;;;6.70;73.17;100938.06;4871187;29;20043;-80
2023/12/21 02:41:20;;;;;;;87.05;42.17;;;;;;;6.94;73.50;100983.06;4861950;29;20510;-81
2023/12/21 02:43:50;;;;;;;87.72;41.50;;;;;;;7.10;73.52;101001.34;4880167;29;20390;-80
2023/12/21 02:46:21;;;;;;;79.63;43.25;;;;;;;6.92;73.25;100953.28;4881507;29;20448;-81
2023/12/21 02:48:52;;;;;;;83.90;44.00;;;;;;;7.19;73.16;100989.31;4884500;29;20896;-82
2023/12/21 02:51:19;;;;;;;80.85;41.80;;;;;;;6.74;73.32;100918.41;4870723;29;20047;-81
2023/12/21 02:53:46;;;;;;;79.40;44.08;;;;;;;7.08;73.30;100968.91;4863978;29;20130;-81
2023/12/21 02:56:18;;;;;;;85.95;45.17;;;;;;;7.28;73.47;100971.03;4885776;28;20240;-81
2023/12/21 02:58:55;;;;;;;80.45;43.83;;;;;;;7.28;73.60;100962.25;4897616;28;20066;-81
2023/12/21 03:01:22;;;;;;;88.55;42.78;;;;;;;7.00;73.28;100931.66;4887657;28;20053;-81
2023/12/21 03:03:51;;;;;;;86.30;43.47;;;;;;;6.78;73.59;100897.97;4924957;28;20054;-80
2023/12/21 03:06:20;;;;;;;82.57;42.53;;;;;;;7.30;73.36;100970.09;4922782;28;20121;-83
2023/12/21 03:08:47;;;;;;;84.70;44.03;;;;;;;7.14;73.06;100938.63;4923976;28;20058;-81
2023/12/21 03:11:18;;;;;;;90.95;45.30;;;;;;;6.76;73.44;100860.28;4961698;28;20076;-79
2023/12/21 03:13:45;;;;;;;72.33;42.37;;;;;;;7.36;73.88;100978.44;4933462;28;20458;-80
2023/12/21 03:16:16;;;;;;;81.65;44.78;;;;;;;7.25;74.26;100970.41;4924835;28;20054;-82
2023/12/21 03:18:46;;;;;;;80.70;42.58;;;;;;;6.79;74.37;100904.91;4942754;28;20482;-81
2023/12/21 03:21:15;;;;;;;81.97;43.38;;;;;;;7.23;74.52;100973.16;4935604;28;20046;-81
2023/12/21 03:23:42;;;;;;;90.13;46.17;;;;;;;7.26;73.74;100980.03;4937066;28;20557;-81
2023/12/21 03:26:13;;;;;;;84.82;44.72;;;;;;;7.27;74.34;100965.84;4921732;28;20058;-81
2023/12/21 03:28:44;;;;;;;89.22;46.63;;;;;;;7.36;74.25;100969.66;4897108;28;20251;-83
2023/12/21 03:31:12;;;;;;;92.95;46.38;;;;;;;7.32;74.76;100966.38;4893325;28;20358;-79
2023/12/21 03:33:39;;;;;;;80.53;45.38;;;;;;;7.34;75.24;100977.69;4938402;28;20412;-79
2023/12/21 03:36:06;;;;;;;108.70;53.50;;;;;;;7.42;75.50;100979.78;4920082;28;20545;-79
2023/12/21 03:38:36;;;;;;;104.00;53.40;;;;;;;7.52;74.77;100964.97;4921867;28;20132;-80
2023/12/21 03:41:03;;;;;;;107.97;53.35;;;;;;;7.45;74.93;100943.47;4899082;28;20709;-80
2023/12/21 03:43:30;;;;;;;106.57;50.13;;;;;;;7.22;75.12;100904.59;4904620;28;20057;-82
2023/12/21 03:45:57;;;;;;;106.43;51.47;;;;;;;7.27;75.22;100918.31;4924442;28;20896;-79
2023/12/21 03:48:24;;;;;;;106.28;52.22;;;;;;;7.62;75.45;100973.09;4901111;28;20046;-83
2023/12/21 03:50:51;;;;;;;107.15;52.53;;;;;;;7.61;75.27;100979.34;4896496;28;20342;-80
2023/12/21 03:53:18;;;;;;;102.45;49.95;;;;;;;7.60;75.25;100978.50;4911014;28;20047;-81
2023/12/21 03:55:45;;;;;;;100.05;48.80;;;;;;;7.32;75.46;100929.41;4934131;28;20254;-81
2023/12/21 03:58:12;;;;;;;100.10;48.92;;;;;;;7.62;74.81;100963.41;4928209;28;20038;-80
2023/12/21 04:00:42;;;;;;;96.47;49.22;;;;;;;7.77;74.92;100982.59;4926273;28;20047;-81
2023/12/21 04:03:12;;;;;;;95.53;48.22;;;;;;;7.76;74.71;100975.63;4903656;28;20048;-78
2023/12/21 04:05:38;;;;;;;87.50;48.15;;;;;;;7.34;74.94;100909.03;4894098;29;20539;-79
2023/12/21 04:08:08;;;;;;;98.95;51.45;;;;;;;7.68;75.35;100964.75;4852291;29;20140;-80
2023/12/21 04:10:36;;;;;;;95.10;48.33;;;;;;;7.67;75.14;100958.63;4879684;29;20051;-80
2023/12/21 04:13:06;;;;;;;88.95;46.67;;;;;;;7.60;75.10;100945.97;4874131;29;20063;-78
2023/12/21 04:15:34;;;;;;;86.22;45.17;;;;;;;7.78;74.85;100976.34;4852599;29;20056;-78
2023/12/21 04:18:03;;;;;;;88.43;46.13;;;;;;;7.83;74.79;100984.81;4866585;29;20084;-81
2023/12/21 04:20:30;;;;;;;89.30;43.85;;;;;;;7.69;74.73;100947.94;4878264;29;20557;-80
2023/12/21 04:22:57;;;;;;;79.53;41.13;;;;;;;7.78;74.26;100965.78;4868478;29;20465;-80
2023/12/21 04:25:34;;;;;;;76.40;42.28;;;;;;;7.88;73.42;100974.75;4857836;29;20238;-83
2023/12/21 04:28:08;;;;;;;79.72;42.08;;;;;;;7.58;73.44;100927.56;4845597;29;20288;-82
2023/12/21 04:30:36;;;;;;;76.18;41.47;;;;;;;7.86;73.19;100984.59;4861034;29;20078;-82
2023/12/21 04:33:05;;;;;;;81.05;40.97;;;;;;;7.82;73.25;100983.13;4871418;29;20048;-79
2023/12/21 04:35:32;;;;;;;74.30;39.08;;;;;;;7.21;73.26;100897.63;4882441;29;20070;-78
2023/12/21 04:37:59;;;;;;;69.47;38.60;;;;;;;7.84;73.38;100997.06;4875714;29;20138;-80
2023/12/21 04:40:26;;;;;;;70.28;36.72;;;;;;;7.87;72.39;100999.50;4883640;29;20061;-81
2023/12/21 04:42:55;;;;;;;69.70;38.70;;;;;;;7.70;72.68;100973.44;4883099;29;20064;-80
2023/12/21 04:45:22;;;;;;;64.93;37.58;;;;;;;7.45;72.68;100935.53;4873111;29;20386;-79
2023/12/21 04:47:49;;;;;;;69.05;38.67;;;;;;;7.55;73.06;100964.78;4877278;29;20405;-80
2023/12/21 04:50:21;;;;;;;64.35;34.20;;;;;;;7.69;72.25;100977.00;4868602;29;20043;-78
2023/12/21 04:53:05;;;;;;;60.50;36.38;;;;;;;7.85;72.02;100984.69;4855393;29;20340;-81
2023/12/21 04:55:31;;;;;;;63.03;34.90;;;;;;;7.23;71.98;100896.59;4869372;29;20659;-80
2023/12/21 04:57:58;;;;;;;60.95;32.15;;;;;;;7.73;71.68;100967.91;4872014;29;20342;-80
2023/12/21 05:00:29;;;;;;;57.63;34.58;;;;;;;7.55;72.98;100948.06;4878278;29;20366;-82
2023/12/21 05:02:57;;;;;;;59.25;33.28;;;;;;;7.43;72.81;100929.50;4896537;28;20142;-81
2023/12/21 05:05:24;;;;;;;64.47;32.80;;;;;;;6.93;73.43;100852.03;4880697;28;20511;-78
2023/12/21 05:07:53;;;;;;;57.42;33.97;;;;;;;7.36;73.64;100928.25;4900920;28;20050;-79
2023/12/21 05:10:19;;;;;;;61.40;34.92;;;;;;;7.19;73.70;100897.75;4920711;28;20038;-79
2023/12/21 05:12:46;;;;;;;56.08;33.50;;;;;;;7.38;74.00;100929.00;4958680;28;20042;-80
2023/12/21 05:15:14;;;;;;;60.60;32.72;;;;;;;7.37;74.06;100947.56;4909841;28;20474;-80
2023/12/21 05:17:41;;;;;;;61.00;31.63;;;;;;;7.28;74.07;100936.72;4908320;28;20130;-78
2023/12/21 05:20:13;;;;;;;55.15;31.58;;;;;;;7.29;74.13;100948.13;4929753;28;20257;-78
2023/12/21 05:22:41;;;;;;;65.95;34.80;;;;;;;7.23;74.50;100937.97;4926587;28;20050;-80
2023/12/21 05:25:08;;;;;;;64.28;34.53;;;;;;;7.20;74.28;100940.81;4881249;28;20308;-80
2023/12/21 05:27:39;;;;;;;64.70;35.28;;;;;;;7.05;75.14;100914.53;4888587;28;20046;-80
2023/12/21 05:30:06;;;;;;;59.88;32.80;;;;;;;7.16;75.25;100920.84;4893857;28;20059;-80
2023/12/21 05:32:33;;;;;;;56.30;32.47;;;;;;;7.19;75.21;100920.66;4909419;28;20411;-81
2023/12/21 05:35:00;;;;;;;64.43;32.78;;;;;;;7.19;75.02;100923.31;4911718;28;20640;-79
2023/12/21 05:37:27;;;;;;;58.28;33.92;;;;;;;7.16;75.26;100916.44;4914501;28;20058;-80
2023/12/21 05:39:54;;;;;;;56.67;33.20;;;;;;;7.25;75.15;100925.50;4900254;28;20267;-80
2023/12/21 05:42:21;;;;;;;60.83;33.15;;;;;;;7.25;75.26;100920.22;4899228;28;20508;-80
2023/12/21 05:44:53;;;;;;;58.33;32.40;;;;;;;7.20;75.08;100891.50;4931138;28;20055;-79
2023/12/21 05:47:20;;;;;;;56.50;33.47;;;;;;;7.30;75.31;100901.41;4916654;28;20046;-80
2023/12/21 05:49:48;;;;;;;57.58;30.98;;;;;;;7.19;75.17;100883.69;4918228;28;20043;-80
2023/12/21 05:52:15;;;;;;;55.88;32.25;;;;;;;7.38;75.44;100915.78;4914631;28;20461;-78
2023/12/21 05:54:41;;;;;;;48.60;31.00;;;;;;;7.25;74.80;100899.09;4894000;28;20141;-80
2023/12/21 05:57:13;;;;;;;48.72;28.17;;;;;;;7.33;75.24;100917.03;4881565;28;20062;-82
2023/12/21 05:59:40;;;;;;;47.83;29.13;;;;;;;7.30;74.89;100912.81;4900010;28;20046;-81
2023/12/21 06:02:07;;;;;;;47.30;29.20;;;;;;;7.28;74.38;100909.44;4921018;28;20507;-82
2023/12/21 06:04:34;;;;;;;52.47;29.75;;;;;;;7.44;74.47;100917.97;4912298;28;20103;-82
2023/12/21 06:07:01;;;;;;;60.40;29.17;;;;;;;7.38;74.52;100923.72;4909630;28;20043;-81
2023/12/21 06:09:30;;;;;;;50.78;30.13;;;;;;;7.33;74.26;100917.91;4943055;28;20047;-81
2023/12/21 06:12:05;;;;;;;45.28;26.35;;;;;;;7.28;74.38;100915.59;4931046;28;20046;-82
2023/12/21 06:14:39;;;;;;;45.03;28.30;;;;;;;7.03;74.89;100870.72;4953178;28;20051;-79
2023/12/21 06:17:06;;;;;;;46.70;27.02;;;;;;;7.22;74.90;100899.31;4930574;28;20101;-82
2023/12/21 06:19:33;;;;;;;40.42;25.00;;;;;;;7.10;74.83;100886.97;4929792;28;20126;-79
2023/12/21 06:22:00;;;;;;;40.85;23.52;;;;;;;7.21;74.73;100911.69;4918691;28;20431;-82
2023/12/21 06:24:27;;;;;;;39.80;24.90;;;;;;;7.07;73.95;100886.22;4920285;28;20659;-81
2023/12/21 06:26:54;;;;;;;42.83;24.10;;;;;;;7.24;74.52;100929.09;4906559;28;20051;-81
2023/12/21 06:29:23;;;;;;;42.25;23.85;;;;;;;7.24;74.02;100934.38;4916945;28;20093;-80
2023/12/21 06:31:57;;;;;;;39.80;22.60;;;;;;;7.18;73.77;100937.44;4919522;28;20058;-82
2023/12/21 06:34:27;;;;;;;37.65;21.48;;;;;;;7.20;74.15;100941.66;4911942;28;20054;-80
2023/12/21 06:36:54;;;;;;;36.67;21.83;;;;;;;7.22;74.46;100936.28;4937735;28;20062;-79
2023/12/21 06:39:21;;;;;;;35.90;20.02;;;;;;;7.18;74.18;100934.81;4943348;28;20489;-81
2023/12/21 06:41:48;;;;;;;32.00;20.48;;;;;;;7.19;74.42;100950.53;4931309;28;20329;-81
2023/12/21 06:44:18;;;;;;;32.03;20.58;;;;;;;6.94;73.83;100909.16;4937081;28;20284;-80
2023/12/21 06:46:46;;;;;;;29.58;19.05;;;;;;;7.13;73.23;100943.03;4919200;28;20494;-80
2023/12/21 06:49:14;;;;;;;26.40;17.23;;;;;;;7.18;72.77;100945.38;4918785;28;20120;-81
2023/12/21 06:51:42;;;;;;;34.08;19.25;;;;;;;7.26;73.20;100967.66;4909692;28;20102;-81
2023/12/21 06:54:09;;;;;;;27.73;18.35;;;;;;;7.20;73.22;100954.88;4914221;28;20051;-81
2023/12/21 06:56:41;;;;;;;32.88;19.30;;;;;;;7.17;72.94;100928.69;4902401;28;20746;-81
2023/12/21 06:59:08;;;;;;;32.47;19.13;;;;;;;7.14;72.36;100920.16;4911922;28;20439;-80
2023/12/21 07:01:36;;;;;;;30.80;17.77;;;;;;;6.76;73.06;100847.91;4928664;28;20137;-81
2023/12/21 07:04:04;;;;;;;32.00;18.52;;;;;;;6.24;72.97;100779.41;4910725;28;20059;-83
2023/12/21 07:06:30;;;;;;;27.45;18.23;;;;;;;6.23;73.55;100788.28;4941470;28;20078;-80
2023/12/21 07:08:58;;;;;;;31.95;19.25;;;;;;;6.61;73.64;100870.09;4921045;28;20051;-82
2023/12/21 07:11:25;;;;;;;30.33;17.23;;;;;;;6.04;73.05;100781.59;4920903;28;20417;-81
2023/12/21 07:13:52;;;;;;;29.45;17.08;;;;;;;6.98;72.51;100944.09;4918481;28;20231;-80
2023/12/21 07:16:19;;;;;;;26.98;15.75;;;;;;;6.48;72.19;100872.72;4930670;28;20061;-80
2023/12/21 07:18:50;;;;;;;29.00;16.00;;;;;;;6.97;71.98;100953.81;4955366;28;20363;-80
2023/12/21 07:21:20;;;;;;;28.08;14.60;;;;;;;6.20;71.76;100835.00;4927619;28;20050;-81
2023/12/21 07:23:47;;;;;;;29.08;15.70;;;;;;;7.10;72.62;100992.59;4960440;28;20136;-81
2023/12/21 07:26:17;;;;;;;28.00;15.38;;;;;;;6.97;73.41;100974.94;4914049;28;20514;-82
2023/12/21 07:28:44;;;;;;;32.67;15.05;;;;;;;6.82;73.04;100957.47;4950807;28;20521;-81
2023/12/21 07:31:13;;;;;;;29.80;16.48;;;;;;;6.93;72.40;100968.16;4942444;28;20050;-82
2023/12/21 07:33:42;;;;;;;28.20;15.98;;;;;;;6.92;73.13;100965.63;4935500;28;20563;-82
2023/12/21 07:36:09;;;;;;;22.73;14.82;;;;;;;6.98;72.27;100971.34;4944781;28;20069;-82
2023/12/21 07:38:36;;;;;;;44.35;15.55;;;;;;;7.05;71.45;100975.25;4945091;28;20224;-81
2023/12/21 07:41:03;;;;;;;24.25;15.52;;;;;;;7.08;70.77;100971.56;4944927;28;20082;-82
2023/12/21 07:43:37;;;;;;;25.60;14.70;;;;;;;6.78;70.43;100911.16;4906816;28;20053;-81
2023/12/21 07:46:09;;;;;;;25.25;14.32;;;;;;;7.12;69.95;100967.75;4914202;28;20447;-82
2023/12/21 07:48:36;;;;;;;22.90;14.55;;;;;;;7.15;70.03;100972.00;4935105;28;20507;-81
2023/12/21 07:51:06;;;;;;;24.02;13.68;;;;;;;7.15;69.61;100958.78;4938180;28;20074;-81
2023/12/21 07:53:33;;;;;;;22.48;15.30;;;;;;;7.25;70.34;100967.75;4925491;28;20042;-80
2023/12/21 07:56:04;;;;;;;23.00;15.27;;;;;;;7.21;70.71;100966.28;4908438;28;20057;-83
2023/12/21 07:58:35;;;;;;;18.38;13.52;;;;;;;7.13;71.34;100948.31;4932605;28;20050;-83
2023/12/21 08:01:05;;;;;;;30.58;15.55;;;;;;;7.00;71.59;100929.84;4932064;28;20112;-81
2023/12/21 08:03:32;;;;;;;28.52;14.90;;;;;;;7.25;71.92;100949.28;4963019;28;20120;-81
2023/12/21 08:05:59;;;;;;;29.08;15.27;;;;;;;7.15;72.15;100929.75;4937853;28;20046;-80
2023/12/21 08:08:48;;;;;;;28.88;15.75;;;;;;;7.05;71.12;100903.97;4938422;28;20101;-82
2023/12/21 08:11:28;;;;;;;27.48;15.70;;;;;;;7.01;71.12;100886.66;4925245;28;20519;-84
2023/12/21 08:14:20;;;;;;;24.35;15.55;;;;;;;6.91;70.51;100848.66;4955878;28;20537;-82
2023/12/21 08:16:53;;;;;;;20.90;15.23;;;;;;;7.04;70.65;100859.22;4940723;28;20101;-80
2023/12/21 08:19:21;;;;;;;22.98;14.85;;;;;;;7.55;69.97;100932.22;4950417;28;20046;-81
2023/12/21 08:21:48;;;;;;;20.63;14.02;;;;;;;7.36;69.23;100886.00;4933461;28;20156;-81
2023/12/21 08:24:14;;;;;;;22.88;14.02;;;;;;;7.68;68.82;100927.75;4917083;28;20608;-82
2023/12/21 08:26:41;;;;;;;26.60;15.57;;;;;;;7.73;68.40;100923.00;4919469;28;20436;-82
2023/12/21 08:29:08;;;;;;;27.45;14.27;;;;;;;7.82;68.95;100930.25;4906356;28;20064;-84
2023/12/21 08:31:35;;;;;;;21.13;14.00;;;;;;;7.85;68.51;100914.16;4921619;28;20074;-81
2023/12/21 08:34:02;;;;;;;29.02;14.85;;;;;;;7.75;68.69;100870.88;4952422;28;20046;-83
2023/12/21 08:36:29;;;;;;;22.90;15.00;;;;;;;7.68;68.03;100853.78;4943825;28;20074;-80
2023/12/21 08:38:57;;;;;;;26.27;14.18;;;;;;;7.36;68.12;100806.75;4915433;28;20050;-82
2023/12/21 08:41:25;;;;;;;19.20;11.45;;;;;;;7.93;67.73;100895.94;4937663;28;20039;-81
2023/12/21 08:43:55;;;;;;;19.75;11.98;;;;;;;7.72;67.49;100855.25;4896817;28;20050;-82
2023/12/21 08:46:22;;;;;;;19.40;12.02;;;;;;;7.60;67.04;100829.72;4912734;28;20040;-78
2023/12/21 08:48:49;;;;;;;18.33;12.35;;;;;;;7.35;67.50;100796.28;4920273;28;20568;-80
2023/12/21 08:51:16;;;;;;;19.63;11.40;;;;;;;7.89;67.49;100891.84;4908074;28;20051;-79
2023/12/21 08:53:46;;;;;;;18.70;13.25;;;;;;;8.02;67.42;100909.47;4914469;28;20087;-81
2023/12/21 08:56:13;;;;;;;16.33;11.57;;;;;;;8.04;66.76;100887.25;4899952;28;20044;-82
2023/12/21 08:58:43;;;;;;;30.63;10.88;;;;;;;8.17;66.95;100881.88;4904055;28;20487;-83
2023/12/21 09:01:12;;;;;;;21.75;11.60;;;;;;;8.28;66.48;100884.56;4892576;28;20050;-83
2023/12/21 09:03:39;;;;;;;16.98;11.35;;;;;;;8.14;66.55;100858.31;4918369;28;20475;-82
2023/12/21 09:06:12;;;;;;;16.42;11.77;;;;;;;8.16;66.46;100858.22;4904638;28;20812;-82
2023/12/21 09:08:42;;;;;;;19.23;12.55;;;;;;;8.27;66.33;100871.44;4888581;28;20183;-82
2023/12/21 09:11:12;;;;;;;17.15;11.32;;;;;;;8.45;66.42;100879.84;4908705;28;20274;-79
2023/12/21 09:13:43;;;;;;;18.00;12.17;;;;;;;8.39;65.98;100870.53;4889924;28;20489;-82
2023/12/21 09:16:10;;;;;;;14.85;11.23;;;;;;;8.33;66.31;100853.31;4913377;28;20261;-81
2023/12/21 09:18:38;;;;;;;20.85;11.50;;;;;;;8.50;65.54;100856.53;4925014;28;20423;-81
2023/12/21 09:21:05;;;;;;;18.17;12.05;;;;;;;8.61;66.05;100853.91;4924665;28;20055;-81
2023/12/21 09:23:32;;;;;;;15.63;11.60;;;;;;;8.64;66.11;100869.56;4931283;28;20142;-79
2023/12/21 09:25:59;;;;;;;19.90;11.85;;;;;;;8.65;65.88;100871.22;4924073;28;20530;-79
2023/12/21 09:28:27;;;;;;;16.52;11.95;;;;;;;8.54;65.47;100857.97;4892370;28;20090;-82
2023/12/21 09:30:59;;;;;;;21.05;12.82;;;;;;;8.64;65.43;100860.75;4887641;28;20146;-81
2023/12/21 09:33:34;;;;;;;18.15;12.93;;;;;;;8.52;65.22;100823.72;4906966;28;20063;-83
2023/12/21 09:36:05;;;;;;;;;;;;;;;8.84;65.20;100854.78;4893789;28;20051;-83
2023/12/21 09:38:32;;;;;;;21.48;11.98;;;;;;;8.83;64.55;100831.06;4920565;28;20432;-82
2023/12/21 09:40:59;;;;;;;21.38;12.80;;;;;;;8.97;64.53;100844.91;4908506;28;20061;-82
2023/12/21 09:43:27;;;;;;;17.52;12.38;;;;;;;8.99;64.54;100847.44;4920635;28;20411;-82
2023/12/21 09:45:57;;;;;;;19.92;12.80;;;;;;;9.04;64.38;100844.44;4930762;28;20061;-83
2023/12/21 09:48:25;;;;;;;19.92;12.77;;;;;;;8.97;64.08;100825.53;4940670;28;20576;-81
2023/12/21 09:50:55;;;;;;;19.67;13.00;;;;;;;8.88;64.08;100810.38;4915051;28;20042;-82
2023/12/21 09:53:25;;;;;;;23.98;14.02;;;;;;;8.99;63.38;100815.66;4928702;28;20430;-81
2023/12/21 09:55:55;;;;;;;20.15;14.40;;;;;;;9.17;63.21;100829.25;4900106;28;20046;-82
2023/12/21 09:58:22;;;;;;;19.63;13.52;;;;;;;9.14;63.29;100816.25;4905009;28;20156;-81
2023/12/21 10:00:49;;;;;;;22.38;14.30;;;;;;;9.11;63.45;100796.16;4946054;28;20073;-84
2023/12/21 10:03:18;;;;;;;19.92;14.20;;;;;;;9.04;62.98;100792.31;4930163;28;20361;-81
2023/12/21 10:05:47;;;;;;;22.33;14.27;;;;;;;9.03;63.53;100793.28;4906617;29;20414;-81
2023/12/21 10:08:18;;;;;;;23.77;14.15;;;;;;;8.81;63.77;100756.22;4904380;28;20051;-81
2023/12/21 10:10:46;;;;;;;20.92;14.00;;;;;;;8.97;63.70;100769.94;4920264;28;20138;-83
2023/12/21 10:13:13;;;;;;;22.60;13.18;;;;;;;8.24;63.82;100644.22;4906739;28;20551;-84
2023/12/21 10:15:43;;;;;;;22.30;13.75;;;;;;;9.03;63.68;100745.63;4905527;29;20054;-83
2023/12/21 10:18:11;;;;;;;23.10;14.07;;;;;;;8.85;63.58;100717.97;4904104;29;20409;-80
2023/12/21 10:20:39;;;;;;;17.45;12.35;;;;;;;9.04;63.73;100739.34;4903993;29;20110;-83
2023/12/21 10:23:07;;;;;;;23.73;13.45;;;;;;;9.06;63.54;100731.28;4928139;28;20133;-83
2023/12/21 10:25:36;;;;;;;25.23;13.82;;;;;;;9.24;63.05;100742.19;4915305;28;20109;-81
2023/12/21 10:28:04;;;;;;;20.45;12.93;;;;;;;9.20;63.25;100729.22;4930792;28;20169;-82
2023/12/21 10:30:38;;;;;;;22.02;14.93;;;;;;;9.29;63.00;100747.97;4932291;28;20050;-83
2023/12/21 10:33:08;;;;;;;21.20;15.13;;;;;;;9.16;63.26;100722.47;4948173;28;20158;-83
2023/12/21 10:35:39;;;;;;;24.70;14.95;;;;;;;9.33;63.74;100729.03;4948723;28;20411;-83
2023/12/21 10:38:09;;;;;;;20.38;15.32;;;;;;;9.30;64.14;100712.56;4940891;28;20303;-82
2023/12/21 10:40:36;;;;;;;24.08;15.10;;;;;;;9.33;63.57;100701.72;4914716;28;20510;-81
2023/12/21 10:43:03;;;;;;;22.08;15.50;;;;;;;9.44;63.17;100724.66;4936857;28;20050;-81
2023/12/21 10:45:31;;;;;;;23.20;15.18;;;;;;;9.32;63.59;100690.28;4926412;28;20042;-82
2023/12/21 10:48:06;;;;;;;25.85;16.10;;;;;;;9.53;63.89;100719.44;4935904;28;20055;-81
2023/12/21 10:50:39;;;;;;;26.38;16.77;;;;;;;9.59;63.09;100721.59;4944036;28;20043;-82
2023/12/21 10:53:12;;;;;;;25.17;16.23;;;;;;;9.59;63.13;100724.25;4918118;28;20050;-82
2023/12/21 10:55:40;;;;;;;30.33;19.20;;;;;;;9.47;63.56;100698.78;4907923;28;20057;-81
2023/12/21 10:58:11;;;;;;;27.05;19.65;;;;;;;9.31;63.26;100671.84;4916681;28;20134;-82
2023/12/21 11:00:40;;;;;;;27.63;19.58;;;;;;;9.39;63.96;100687.94;4900616;29;20057;-82
2023/12/21 11:03:09;;;;;;;30.30;20.10;;;;;;;9.62;63.52;100717.84;4906247;29;20074;-82
2023/12/21 11:05:39;;;;;;;23.05;15.70;;;;;;;9.75;62.70;100712.38;4901593;29;20066;-80
2023/12/21 11:08:10;;;;;;;24.98;16.67;;;;;;;9.52;62.74;100654.16;4903459;29;20062;-81
2023/12/21 11:10:40;;;;;;;25.10;16.30;;;;;;;9.88;62.78;100691.81;4901071;29;20388;-80
2023/12/21 11:13:07;;;;;;;24.27;16.70;;;;;;;9.57;63.45;100646.69;4883862;29;20072;-80
2023/12/21 11:15:36;;;;;;;22.95;16.15;;;;;;;9.82;63.61;100676.41;4900991;29;20048;-81
2023/12/21 11:18:15;;;;;;;27.25;16.00;;;;;;;9.82;63.22;100650.72;4898610;29;20419;-80
2023/12/21 11:20:46;;;;;;;25.85;17.20;;;;;;;9.40;62.96;100559.81;4906195;29;20049;-81
2023/12/21 11:23:17;;;;;;;23.67;16.58;;;;;;;9.97;63.46;100643.28;4896354;29;20131;-81